createdAt,value
2023-01-29T00:01:34.705Z,6.68
2023-01-29T00:04:03.499Z,5.97
2023-01-29T00:06:30.137Z,5.25
2023-01-29T00:08:57.189Z,6.50
2023-01-29T00:11:25.416Z,6.30
2023-01-29T00:13:54.776Z,6.18
2023-01-29T00:16:24.221Z,5.53
2023-01-29T00:18:50.727Z,5.88
2023-01-29T00:21:18.569Z,6.50
2023-01-29T00:23:47.360Z,5.05
2023-01-29T00:26:14.267Z,5.93
2023-01-29T00:28:44.007Z,6.05
2023-01-29T00:31:11.705Z,6.30
2023-01-29T00:33:38.979Z,6.90
2023-01-29T00:36:08.557Z,6.10
2023-01-29T00:38:36.057Z,6.10
2023-01-29T00:41:30.502Z,5.68
2023-01-29T00:44:18.617Z,5.55
2023-01-29T00:46:46.530Z,5.95
2023-01-29T00:49:13.261Z,5.78
2023-01-29T00:51:40.145Z,5.75
2023-01-29T00:54:09.093Z,6.22
2023-01-29T00:56:38.214Z,5.72
2023-01-29T00:59:09.477Z,4.70
2023-01-29T01:01:57.462Z,6.38
2023-01-29T01:04:23.942Z,5.75
2023-01-29T01:06:50.626Z,6.03
2023-01-29T01:09:52.627Z,5.85
2023-01-29T01:12:24.143Z,6.15
2023-01-29T01:14:50.821Z,5.57
2023-01-29T01:17:19.782Z,5.57
2023-01-29T01:19:46.506Z,6.65
2023-01-29T01:22:15.377Z,6.53
2023-01-29T01:24:45.858Z,6.70
2023-01-29T01:27:13.009Z,6.55
2023-01-29T01:29:42.019Z,5.78
2023-01-29T01:32:08.710Z,6.72
2023-01-29T01:34:37.722Z,6.70
2023-01-29T01:37:09.227Z,7.25
2023-01-29T01:39:35.886Z,8.13
2023-01-29T01:42:02.428Z,7.32
2023-01-29T01:44:50.459Z,6.03
2023-01-29T01:47:22.940Z,6.45
2023-01-29T01:49:51.932Z,6.75
2023-01-29T01:52:18.940Z,7.47
2023-01-29T01:57:18.295Z,6.70
2023-01-29T01:59:49.720Z,7.63
2023-01-29T02:02:36.003Z,7.30
2023-01-29T02:05:21.246Z,6.70
2023-01-29T02:08:09.463Z,6.22
2023-01-29T02:10:39.999Z,6.10
2023-01-29T02:13:09.451Z,6.55
2023-01-29T02:15:41.850Z,6.70
2023-01-29T02:18:10.900Z,5.75
2023-01-29T02:20:38.312Z,6.63
2023-01-29T02:23:16.265Z,6.53
2023-01-29T02:25:45.089Z,6.95
2023-01-29T02:28:17.571Z,7.72
2023-01-29T02:30:49.647Z,6.22
2023-01-29T02:33:16.160Z,6.57
2023-01-29T02:35:50.383Z,7.35
2023-01-29T02:38:28.639Z,5.32
2023-01-29T02:40:58.175Z,6.18
2023-01-29T02:43:37.330Z,7.78
2023-01-29T02:46:22.350Z,6.75
2023-01-29T02:48:55.562Z,6.43
2023-01-29T02:51:43.277Z,7.15
2023-01-29T02:54:24.797Z,5.82
2023-01-29T02:56:53.602Z,6.57
2023-01-29T02:59:40.890Z,6.78
2023-01-29T03:02:12.758Z,6.80
2023-01-29T03:04:46.479Z,5.72
2023-01-29T03:07:38.289Z,6.57
2023-01-29T03:10:20.628Z,6.10
2023-01-29T03:12:51.198Z,7.40
2023-01-29T03:15:26.577Z,6.97
2023-01-29T03:18:11.639Z,7.07
2023-01-29T03:20:53.726Z,7.63
2023-01-29T03:23:27.056Z,6.43
2023-01-29T03:26:19.505Z,6.35
2023-01-29T03:29:07.829Z,7.15
2023-01-29T03:31:54.385Z,6.43
2023-01-29T03:34:28.487Z,7.07
2023-01-29T03:37:00.297Z,8.82
2023-01-29T03:39:31.133Z,7.45
2023-01-29T03:42:14.851Z,6.00
2023-01-29T03:45:00.544Z,7.78
2023-01-29T03:47:48.026Z,6.65
2023-01-29T03:50:18.029Z,5.80
2023-01-29T03:53:14.230Z,6.45
2023-01-29T03:56:15.646Z,6.65
2023-01-29T03:58:47.869Z,6.47
2023-01-29T04:01:19.479Z,7.03
2023-01-29T04:03:52.032Z,6.68
2023-01-29T04:06:23.714Z,5.78
2023-01-29T04:09:15.207Z,5.90
2023-01-29T04:11:45.276Z,6.38
2023-01-29T04:14:12.328Z,6.03
2023-01-29T04:16:41.185Z,6.15
2023-01-29T04:19:16.142Z,6.75
2023-01-29T04:21:43.913Z,6.07
2023-01-29T04:24:11.756Z,6.13
2023-01-29T04:26:43.960Z,7.07
2023-01-29T04:29:13.071Z,7.18
2023-01-29T04:32:02.573Z,5.88
2023-01-29T04:34:38.856Z,6.65
2023-01-29T04:37:19.232Z,6.22
2023-01-29T04:39:54.329Z,5.97
2023-01-29T04:42:31.094Z,6.63
2023-01-29T04:45:00.634Z,5.95
2023-01-29T04:47:52.366Z,6.93
2023-01-29T04:50:35.273Z,5.80
2023-01-29T04:53:08.012Z,6.25
2023-01-29T04:55:40.229Z,5.40
2023-01-29T04:58:17.597Z,6.00
2023-01-29T05:00:48.980Z,7.25
2023-01-29T05:03:16.197Z,5.78
2023-01-29T05:05:45.343Z,5.55
2023-01-29T05:08:13.517Z,5.47
2023-01-29T05:10:40.184Z,6.78
2023-01-29T05:13:15.553Z,5.32
2023-01-29T05:15:47.348Z,6.65
2023-01-29T05:18:13.871Z,5.65
2023-01-29T05:20:43.584Z,6.20
2023-01-29T05:23:20.387Z,6.80
2023-01-29T05:25:52.892Z,5.57
2023-01-29T05:28:23.306Z,5.55
2023-01-29T05:30:53.330Z,5.03
2023-01-29T05:33:19.819Z,5.88
2023-01-29T05:35:47.198Z,6.57
2023-01-29T05:38:13.946Z,6.82
2023-01-29T05:40:44.935Z,6.45
2023-01-29T05:43:17.696Z,6.15
2023-01-29T05:45:51.392Z,6.45
2023-01-29T05:48:17.919Z,5.30
2023-01-29T05:50:44.465Z,5.95
2023-01-29T05:53:10.883Z,6.47
2023-01-29T05:55:39.723Z,6.25
2023-01-29T05:58:06.245Z,5.28
2023-01-29T06:00:32.773Z,6.07
2023-01-29T06:02:59.332Z,7.57
2023-01-29T06:05:25.882Z,7.50
2023-01-29T06:07:57.627Z,6.65
2023-01-29T06:10:32.066Z,5.32
2023-01-29T06:12:58.646Z,5.18
2023-01-29T06:15:27.492Z,5.13
2023-01-29T06:17:54.302Z,6.05
2023-01-29T06:20:23.882Z,6.35
2023-01-29T06:22:50.375Z,6.45
2023-01-29T06:25:19.268Z,6.25
2023-01-29T06:27:45.814Z,5.10
2023-01-29T06:30:12.507Z,5.97
2023-01-29T06:32:41.290Z,5.82
2023-01-29T06:35:10.708Z,6.00
2023-01-29T06:37:39.704Z,6.35
2023-01-29T06:40:08.923Z,5.47
2023-01-29T06:42:37.680Z,6.82
2023-01-29T06:45:04.367Z,7.72
2023-01-29T06:47:35.249Z,5.72
2023-01-29T06:50:04.167Z,6.25
2023-01-29T06:52:32.812Z,7.53
2023-01-29T06:54:59.331Z,6.40
2023-01-29T06:57:28.456Z,6.82
2023-01-29T06:59:54.996Z,7.00
2023-01-29T07:02:26.472Z,7.28
2023-01-29T07:04:52.987Z,6.45
2023-01-29T07:07:19.607Z,6.63
2023-01-29T07:09:46.147Z,8.43
2023-01-29T07:12:14.683Z,9.27
2023-01-29T07:14:43.676Z,7.65
2023-01-29T07:17:10.172Z,6.47
2023-01-29T07:19:39.142Z,7.45
2023-01-29T07:22:08.042Z,8.55
2023-01-29T07:24:36.523Z,8.60
2023-01-29T07:27:05.421Z,7.88
2023-01-29T07:29:31.963Z,7.95
2023-01-29T07:31:58.663Z,6.68
2023-01-29T07:34:27.585Z,7.50
2023-01-29T07:36:56.882Z,6.32
2023-01-29T07:39:23.573Z,6.88
2023-01-29T07:41:50.069Z,6.63
2023-01-29T07:44:16.788Z,6.03
2023-01-29T07:46:43.468Z,7.43
2023-01-29T07:49:09.941Z,8.63
2023-01-29T07:51:38.883Z,8.07
2023-01-29T07:54:08.425Z,6.70
2023-01-29T07:56:37.395Z,6.82
2023-01-29T07:59:03.931Z,6.72
2023-01-29T08:01:30.451Z,6.55
2023-01-29T08:03:56.966Z,7.63
2023-01-29T08:06:25.586Z,7.47
2023-01-29T08:08:53.238Z,7.18
2023-01-29T08:11:22.105Z,6.20
2023-01-29T08:13:48.537Z,6.65
2023-01-29T08:16:17.497Z,7.80
2023-01-29T08:18:47.576Z,6.95
2023-01-29T08:21:14.369Z,7.45
2023-01-29T08:23:43.146Z,7.95
2023-01-29T08:26:09.705Z,6.93
2023-01-29T08:28:38.739Z,7.30
2023-01-29T08:31:07.641Z,7.22
2023-01-29T08:33:39.065Z,6.95
2023-01-29T08:36:08.743Z,6.82
2023-01-29T08:41:04.013Z,7.38
2023-01-29T08:43:32.610Z,7.50
2023-01-29T08:45:59.273Z,7.60
2023-01-29T08:48:25.893Z,6.63
2023-01-29T08:50:56.926Z,6.80
2023-01-29T08:53:24.934Z,8.60
2023-01-29T08:55:53.961Z,7.82
2023-01-29T08:58:22.674Z,7.82
2023-01-29T09:00:53.867Z,7.47
2023-01-29T09:03:20.567Z,6.85
2023-01-29T09:05:47.006Z,7.57
2023-01-29T09:08:13.481Z,7.32
2023-01-29T09:10:42.377Z,6.80
2023-01-29T09:13:11.196Z,6.72
2023-01-29T09:15:37.731Z,7.57
2023-01-29T09:18:04.959Z,8.07
2023-01-29T09:20:33.793Z,8.57
2023-01-29T09:23:04.006Z,7.78
2023-01-29T09:25:30.503Z,6.93
2023-01-29T09:27:57.029Z,6.45
2023-01-29T09:30:23.630Z,6.72
2023-01-29T09:32:54.120Z,8.65
2023-01-29T09:35:26.635Z,7.68
2023-01-29T09:37:53.233Z,7.80
2023-01-29T09:40:24.919Z,7.18
2023-01-29T09:42:54.343Z,8.88
2023-01-29T09:45:25.100Z,10.27
2023-01-29T09:47:59.559Z,8.00
2023-01-29T09:50:38.365Z,8.50
2023-01-29T09:53:14.020Z,8.60
2023-01-29T09:55:45.640Z,9.57
2023-01-29T09:58:16.942Z,7.60
2023-01-29T10:00:54.811Z,7.78
2023-01-29T10:03:21.398Z,8.82
2023-01-29T10:06:06.956Z,7.68
2023-01-29T10:08:38.843Z,7.97
2023-01-29T10:11:12.927Z,7.75
2023-01-29T10:13:54.503Z,7.28
2023-01-29T10:16:34.020Z,7.95
2023-01-29T10:19:07.041Z,7.55
2023-01-29T10:21:36.548Z,8.88
2023-01-29T10:24:13.259Z,8.07
2023-01-29T10:26:42.430Z,8.18
2023-01-29T10:29:14.576Z,8.18
2023-01-29T10:31:43.686Z,9.18
2023-01-29T10:34:16.913Z,9.10
2023-01-29T10:36:45.749Z,8.77
2023-01-29T10:39:16.458Z,9.85
2023-01-29T10:41:46.968Z,8.68
2023-01-29T10:44:33.695Z,10.20
2023-01-29T10:47:18.937Z,8.85
2023-01-29T10:49:57.820Z,9.10
2023-01-29T10:52:30.401Z,7.90
2023-01-29T10:55:04.035Z,8.13
2023-01-29T10:57:35.653Z,8.20
2023-01-29T11:00:10.947Z,8.82
2023-01-29T11:02:42.835Z,10.50
2023-01-29T11:05:21.206Z,9.20
2023-01-29T11:07:54.803Z,10.15
2023-01-29T11:10:27.551Z,9.75
2023-01-29T11:12:57.222Z,10.27
2023-01-29T11:15:26.499Z,9.48
2023-01-29T11:18:03.889Z,9.77
2023-01-29T11:20:33.325Z,9.30
2023-01-29T11:23:00.311Z,10.38
2023-01-29T11:28:00.547Z,7.78
2023-01-29T11:30:31.613Z,8.85
2023-01-29T11:33:07.231Z,8.68
2023-01-29T11:35:36.688Z,9.05
2023-01-29T11:38:09.524Z,9.60
2023-01-29T11:40:39.843Z,9.45
2023-01-29T11:43:17.859Z,8.52
2023-01-29T11:45:44.831Z,9.43
2023-01-29T11:50:40.582Z,7.85
2023-01-29T11:55:49.966Z,8.02
2023-01-29T11:58:24.160Z,9.30
2023-01-29T12:00:55.322Z,10.23
2023-01-29T12:03:27.441Z,9.05
2023-01-29T12:05:58.456Z,10.75
2023-01-29T12:08:29.464Z,10.02
2023-01-29T12:11:07.379Z,9.35
2023-01-29T12:13:36.291Z,8.88
2023-01-29T12:16:11.691Z,9.85
2023-01-29T12:18:40.403Z,8.55
2023-01-29T12:21:39.408Z,9.23
2023-01-29T12:24:22.621Z,9.82
2023-01-29T12:26:55.181Z,8.60
2023-01-29T12:29:30.037Z,10.43
2023-01-29T12:31:59.072Z,10.15
2023-01-29T12:34:39.263Z,10.00
2023-01-29T12:37:14.932Z,9.50
2023-01-29T12:39:44.113Z,9.27
2023-01-29T12:42:15.426Z,8.88
2023-01-29T12:44:49.876Z,10.20
2023-01-29T12:47:31.167Z,9.27
2023-01-29T12:50:00.183Z,9.35
2023-01-29T12:52:44.888Z,9.18
2023-01-29T12:55:13.756Z,9.15
2023-01-29T12:57:49.630Z,9.52
2023-01-29T13:00:22.491Z,8.40
2023-01-29T13:03:16.182Z,10.10
2023-01-29T13:05:48.535Z,9.73
2023-01-29T13:08:22.960Z,9.95
2023-01-29T13:10:50.549Z,9.25
2023-01-29T13:13:36.302Z,8.95
2023-01-29T13:16:11.128Z,8.32
2023-01-29T13:18:43.834Z,15.80
2023-01-29T13:21:13.041Z,12.20
2023-01-29T13:23:49.956Z,9.50
2023-01-29T13:26:20.166Z,8.70
2023-01-29T13:28:47.002Z,8.48
2023-01-29T13:31:29.192Z,9.25
2023-01-29T13:34:16.906Z,10.02
2023-01-29T13:36:56.964Z,10.85
2023-01-29T13:39:30.496Z,10.35
2023-01-29T13:41:58.243Z,10.10
2023-01-29T13:44:35.978Z,10.48
2023-01-29T13:47:07.610Z,8.38
2023-01-29T13:49:34.061Z,8.25
2023-01-29T13:52:14.756Z,10.38
2023-01-29T13:54:41.868Z,9.63
2023-01-29T13:57:32.441Z,10.50
2023-01-29T13:59:59.047Z,9.85
2023-01-29T14:02:27.187Z,10.27
2023-01-29T14:05:15.508Z,9.75
2023-01-29T14:07:45.304Z,10.23
2023-01-29T14:10:17.365Z,8.45
2023-01-29T14:12:46.801Z,9.02
2023-01-29T14:15:18.369Z,9.70
2023-01-29T14:18:02.581Z,7.97
2023-01-29T14:20:45.020Z,9.85
2023-01-29T14:23:24.130Z,9.95
2023-01-29T14:25:50.809Z,9.75
2023-01-29T14:28:21.177Z,10.10
2023-01-29T14:30:51.600Z,10.02
2023-01-29T14:33:29.371Z,10.10
2023-01-29T14:35:58.900Z,9.63
2023-01-29T14:38:27.220Z,8.35
2023-01-29T14:41:03.416Z,10.50
2023-01-29T14:43:32.533Z,9.90
2023-01-29T14:46:21.112Z,9.20
2023-01-29T14:48:50.530Z,9.90
2023-01-29T14:51:17.841Z,8.68
2023-01-29T14:53:54.418Z,10.85
2023-01-29T14:56:20.887Z,9.68
2023-01-29T14:58:51.774Z,9.18
2023-01-29T15:01:23.231Z,9.23
2023-01-29T15:03:57.950Z,10.70
2023-01-29T15:06:32.038Z,9.10
2023-01-29T15:09:10.018Z,10.25
2023-01-29T15:11:51.404Z,8.95
2023-01-29T15:14:35.757Z,9.93
2023-01-29T15:17:13.561Z,8.88
2023-01-29T15:19:48.113Z,10.13
2023-01-29T15:22:18.779Z,9.50
2023-01-29T15:24:48.461Z,9.35
2023-01-29T15:27:18.830Z,9.57
2023-01-29T15:29:55.882Z,8.55
2023-01-29T15:32:33.111Z,8.90
2023-01-29T15:35:00.371Z,9.32
2023-01-29T15:37:33.004Z,10.13
2023-01-29T15:40:03.230Z,8.15
2023-01-29T15:42:46.378Z,10.35
2023-01-29T15:45:31.148Z,8.80
2023-01-29T15:48:11.109Z,8.32
2023-01-29T15:50:46.611Z,8.73
2023-01-29T15:53:20.913Z,8.73
2023-01-29T15:55:52.952Z,10.30
2023-01-29T15:58:26.042Z,9.07
2023-01-29T16:00:56.510Z,8.52
2023-01-29T16:03:26.860Z,9.65
2023-01-29T16:05:56.484Z,9.05
2023-01-29T16:08:26.783Z,9.82
2023-01-29T16:11:03.879Z,9.35
2023-01-29T16:13:34.635Z,9.73
2023-01-29T16:16:04.216Z,10.07
2023-01-29T16:18:47.723Z,10.32
2023-01-29T16:21:29.667Z,9.50
2023-01-29T16:24:10.999Z,9.38
2023-01-29T16:26:44.140Z,11.00
2023-01-29T16:29:15.969Z,10.52
2023-01-29T16:31:47.707Z,11.48
2023-01-29T16:34:19.439Z,14.23
2023-01-29T16:36:50.723Z,11.30
2023-01-29T16:39:26.211Z,12.88
2023-01-29T16:42:19.973Z,10.68
2023-01-29T16:44:58.796Z,11.15
2023-01-29T16:47:33.075Z,9.60
2023-01-29T16:50:03.902Z,10.55
2023-01-29T16:52:37.477Z,12.23
2023-01-29T16:55:09.918Z,14.93
2023-01-29T16:57:39.480Z,11.75
2023-01-29T17:00:18.959Z,9.93
2023-01-29T17:02:45.557Z,9.88
2023-01-29T17:05:33.189Z,11.05
2023-01-29T17:08:00.185Z,12.60
2023-01-29T17:10:30.595Z,10.85
2023-01-29T17:13:00.213Z,10.63
2023-01-29T17:15:34.653Z,11.20
2023-01-29T17:18:04.037Z,11.88
2023-01-29T17:20:31.027Z,11.80
2023-01-29T17:25:29.007Z,9.68
2023-01-29T17:27:57.559Z,15.98
2023-01-29T17:30:30.240Z,10.07
2023-01-29T17:32:59.215Z,10.85
2023-01-29T17:35:28.459Z,13.02
2023-01-29T17:37:57.448Z,11.35
2023-01-29T17:40:37.476Z,18.02
2023-01-29T17:43:07.570Z,11.07
2023-01-29T17:45:34.156Z,10.93
2023-01-29T17:48:00.706Z,10.05
2023-01-29T17:50:29.058Z,10.38
2023-01-29T17:52:57.935Z,9.02
2023-01-29T17:55:26.563Z,10.05
2023-01-29T17:57:58.038Z,10.70
2023-01-29T18:00:26.902Z,10.77
2023-01-29T18:03:01.572Z,10.15
2023-01-29T18:05:29.546Z,9.18
2023-01-29T18:07:56.148Z,9.15
2023-01-29T18:10:27.613Z,10.52
2023-01-29T18:12:58.911Z,10.27
2023-01-29T18:15:27.933Z,9.57
2023-01-29T18:17:57.747Z,9.98
2023-01-29T18:20:25.715Z,10.07
2023-01-29T18:22:54.859Z,9.95
2023-01-29T18:25:23.047Z,8.95
2023-01-29T18:27:53.087Z,10.13
2023-01-29T18:30:19.677Z,10.07
2023-01-29T18:32:48.385Z,10.43
2023-01-29T18:35:17.636Z,10.15
2023-01-29T18:37:44.512Z,10.35
2023-01-29T18:40:13.870Z,10.77
2023-01-29T18:42:47.798Z,10.40
2023-01-29T18:45:15.466Z,14.90
2023-01-29T18:47:44.284Z,12.13
2023-01-29T18:50:14.864Z,12.45
2023-01-29T18:52:41.406Z,12.00
2023-01-29T18:55:10.465Z,9.75
2023-01-29T18:58:27.338Z,9.27
2023-01-29T19:00:27.830Z,8.88
2023-01-29T19:02:54.357Z,9.50
2023-01-29T19:05:24.563Z,10.82
2023-01-29T19:07:53.372Z,9.95
2023-01-29T19:10:19.883Z,9.98
2023-01-29T19:12:46.496Z,9.65
2023-01-29T19:15:13.052Z,9.20
2023-01-29T19:17:39.581Z,9.80
2023-01-29T19:20:06.373Z,9.52
2023-01-29T19:22:32.867Z,10.00
2023-01-29T19:24:59.364Z,10.07
2023-01-29T19:27:30.465Z,9.30
2023-01-29T19:29:57.874Z,9.00
2023-01-29T19:32:28.778Z,11.00
2023-01-29T19:34:55.318Z,10.85
2023-01-29T19:37:27.811Z,9.98
2023-01-29T19:39:56.967Z,9.15
2023-01-29T19:42:23.520Z,9.10
2023-01-29T19:44:53.386Z,9.07
2023-01-29T19:47:22.107Z,10.10
2023-01-29T19:49:51.055Z,7.93
2023-01-29T19:52:52.882Z,10.32
2023-01-29T19:55:22.378Z,9.35
2023-01-29T19:57:51.609Z,9.70
2023-01-29T20:00:19.622Z,9.52
2023-01-29T20:02:46.135Z,9.88
2023-01-29T20:05:13.130Z,9.95
2023-01-29T20:10:17.126Z,8.10
2023-01-29T20:12:46.824Z,8.73
2023-01-29T20:15:16.252Z,8.77
2023-01-29T20:17:43.619Z,9.85
2023-01-29T20:20:10.405Z,9.35
2023-01-29T20:22:41.836Z,9.10
2023-01-29T20:25:13.618Z,8.23
2023-01-29T20:27:40.427Z,9.65
2023-01-29T20:30:09.337Z,10.88
2023-01-29T20:32:38.092Z,9.57
2023-01-29T20:35:07.157Z,7.85
2023-01-29T20:37:33.747Z,8.65
2023-01-29T20:40:00.283Z,7.35
2023-01-29T20:42:26.802Z,7.38
2023-01-29T20:44:53.424Z,7.40
2023-01-29T20:47:23.535Z,8.13
2023-01-29T20:49:50.327Z,7.85
2023-01-29T20:52:21.709Z,7.78
2023-01-29T20:54:51.054Z,7.78
2023-01-29T20:57:20.369Z,7.95
2023-01-29T20:59:46.929Z,7.80
2023-01-29T21:02:15.623Z,9.13
2023-01-29T21:04:44.300Z,8.60
2023-01-29T21:07:10.955Z,7.18
2023-01-29T21:09:39.851Z,8.63
2023-01-29T21:12:08.668Z,7.35
2023-01-29T21:14:35.278Z,7.10
2023-01-29T21:17:06.679Z,6.88
2023-01-29T21:19:33.262Z,6.85
2023-01-29T21:21:59.870Z,6.82
2023-01-29T21:24:26.570Z,7.80
2023-01-29T21:26:53.058Z,7.55
2023-01-29T21:29:19.861Z,6.18
2023-01-29T21:31:51.245Z,8.52
2023-01-29T21:34:20.456Z,7.53
2023-01-29T21:36:46.911Z,6.78
2023-01-29T21:39:20.903Z,7.35
2023-01-29T21:42:07.345Z,6.57
2023-01-29T21:44:36.620Z,6.65
2023-01-29T21:47:23.631Z,7.38
2023-01-29T21:49:52.518Z,6.22
2023-01-29T21:52:22.269Z,7.90
2023-01-29T21:54:51.354Z,6.72
2023-01-29T21:57:17.873Z,6.07
2023-01-29T21:59:45.156Z,6.32
2023-01-29T22:02:19.684Z,7.32
2023-01-29T22:04:54.819Z,6.75
2023-01-29T22:07:27.929Z,7.10
2023-01-29T22:09:54.455Z,7.03
2023-01-29T22:12:21.258Z,6.45
2023-01-29T22:14:49.939Z,6.00
2023-01-29T22:17:16.566Z,6.88
2023-01-29T22:19:45.905Z,7.28
2023-01-29T22:22:16.163Z,6.93
2023-01-29T22:24:46.560Z,5.72
2023-01-29T22:27:13.608Z,6.45
2023-01-29T22:29:44.821Z,6.53
2023-01-29T22:32:11.587Z,6.25
2023-01-29T22:34:42.941Z,6.07
2023-01-29T22:37:11.773Z,6.38
2023-01-29T22:39:40.278Z,6.10
2023-01-29T22:42:09.232Z,5.38
2023-01-29T22:44:35.727Z,6.35
2023-01-29T22:47:04.344Z,5.95
2023-01-29T22:49:33.208Z,5.38
2023-01-29T22:52:11.861Z,6.18
2023-01-29T22:54:42.095Z,7.15
2023-01-29T22:57:12.470Z,5.43
2023-01-29T22:59:39.223Z,6.53
2023-01-29T23:02:06.096Z,5.00
2023-01-29T23:04:34.782Z,6.03
2023-01-29T23:07:03.878Z,5.10
2023-01-29T23:09:30.492Z,6.47
2023-01-29T23:11:57.046Z,6.28
2023-01-29T23:14:25.989Z,5.80
2023-01-29T23:16:55.125Z,5.50
2023-01-29T23:19:24.042Z,5.43
2023-01-29T23:21:50.510Z,5.90
2023-01-29T23:24:19.086Z,6.00
2023-01-29T23:27:04.319Z,5.28
2023-01-29T23:29:33.124Z,6.03
2023-01-29T23:31:59.606Z,4.75
2023-01-29T23:34:26.136Z,4.85
2023-01-29T23:36:55.058Z,5.50
2023-01-29T23:39:21.771Z,5.60
2023-01-29T23:41:48.193Z,5.50
2023-01-29T23:44:20.210Z,4.50
2023-01-29T23:46:49.182Z,4.38
2023-01-29T23:49:18.652Z,5.18
2023-01-29T23:51:49.110Z,5.20
2023-01-29T23:54:18.493Z,6.53
2023-01-29T23:56:49.157Z,5.28
2023-01-29T23:59:17.784Z,5.18
